createdAt,value
2023-04-14T00:01:07.170Z,100418.69
2023-04-14T00:03:31.225Z,100414.72
2023-04-14T00:05:55.017Z,100410.00
2023-04-14T00:08:18.639Z,100413.75
2023-04-14T00:10:42.233Z,100416.75
2023-04-14T00:13:05.775Z,100421.66
2023-04-14T00:15:29.431Z,100426.66
2023-04-14T00:17:54.456Z,100438.19
2023-04-14T00:20:18.089Z,100435.75
2023-04-14T00:22:41.735Z,100437.69
2023-04-14T00:25:05.881Z,100436.88
2023-04-14T00:27:31.104Z,100442.81
2023-04-14T00:29:55.033Z,100434.44
2023-04-14T00:32:19.727Z,100446.41
2023-04-14T00:34:44.720Z,100448.53
2023-04-14T00:37:08.361Z,100452.06
2023-04-14T00:39:32.123Z,100458.22
2023-04-14T00:41:56.741Z,100458.22
2023-04-14T00:44:20.380Z,100461.09
2023-04-14T00:46:44.754Z,100464.84
2023-04-14T00:49:09.085Z,100456.13
2023-04-14T00:51:34.516Z,100461.09
2023-04-14T00:53:58.666Z,100463.44
2023-04-14T00:56:22.460Z,100462.75
2023-04-14T00:58:46.345Z,100464.47
2023-04-14T01:01:10.164Z,100458.31
2023-04-14T01:03:34.184Z,100462.44
2023-04-14T01:05:57.851Z,100466.56
2023-04-14T01:08:23.466Z,100468.28
2023-04-14T01:10:59.680Z,100464.75
2023-04-14T01:13:35.555Z,100465.75
2023-04-14T01:16:03.902Z,100454.63
2023-04-14T01:18:37.125Z,100459.97
2023-04-14T01:21:07.833Z,100461.41
2023-04-14T01:23:39.064Z,100463.94
2023-04-14T01:26:20.830Z,100459.22
2023-04-14T01:29:27.960Z,100464.34
2023-04-14T01:32:03.119Z,100460.69
2023-04-14T01:34:36.271Z,100459.16
2023-04-14T01:37:07.592Z,100457.94
2023-04-14T01:39:37.220Z,100466.31
2023-04-14T01:42:02.107Z,100461.09
2023-04-14T01:44:27.488Z,100456.50
2023-04-14T01:46:56.716Z,100465.88
2023-04-14T01:49:22.527Z,100470.88
2023-04-14T01:51:47.279Z,100469.91
2023-04-14T01:54:12.920Z,100465.47
2023-04-14T01:56:37.969Z,100476.19
2023-04-14T01:59:04.301Z,100466.09
2023-04-14T02:01:29.353Z,100470.63
2023-04-14T02:03:54.991Z,100468.56
2023-04-14T02:06:20.277Z,100463.34
2023-04-14T02:08:44.611Z,100466.50
2023-04-14T02:11:11.072Z,100466.63
2023-04-14T02:13:35.438Z,100471.84
2023-04-14T02:16:02.101Z,100466.50
2023-04-14T02:18:26.321Z,100468.69
2023-04-14T02:20:52.761Z,100471.63
2023-04-14T02:23:16.827Z,100465.19
2023-04-14T02:25:48.466Z,100467.63
2023-04-14T02:28:20.046Z,100461.19
2023-04-14T02:30:49.320Z,100468.13
2023-04-14T02:33:17.317Z,100463.72
2023-04-14T02:35:46.021Z,100468.25
2023-04-14T02:38:19.926Z,100473.69
2023-04-14T02:40:45.229Z,100481.59
2023-04-14T02:43:19.064Z,100479.78
2023-04-14T02:45:47.006Z,100474.78
2023-04-14T02:48:14.865Z,100476.75
2023-04-14T02:50:40.706Z,100484.53
2023-04-14T02:53:13.161Z,100484.88
2023-04-14T02:55:37.816Z,100489.19
2023-04-14T02:58:02.034Z,100490.28
2023-04-14T03:00:28.439Z,100485.06
2023-04-14T03:02:55.027Z,100486.38
2023-04-14T03:05:19.480Z,100488.22
2023-04-14T03:07:52.318Z,100487.00
2023-04-14T03:10:18.759Z,100478.00
2023-04-14T03:12:45.510Z,100484.44
2023-04-14T03:15:12.017Z,100479.31
2023-04-14T03:17:37.597Z,100481.91
2023-04-14T03:20:03.199Z,100482.38
2023-04-14T03:22:28.761Z,100485.81
2023-04-14T03:24:57.125Z,100482.38
2023-04-14T03:27:26.243Z,100478.25
2023-04-14T03:29:55.124Z,100473.59
2023-04-14T03:32:20.837Z,100475.78
2023-04-14T03:34:49.124Z,100471.16
2023-04-14T03:37:16.459Z,100472.47
2023-04-14T03:39:40.869Z,100465.84
2023-04-14T03:42:05.522Z,100464.47
2023-04-14T03:44:35.722Z,100474.97
2023-04-14T03:47:00.754Z,100455.97
2023-04-14T03:49:27.054Z,100458.50
2023-04-14T03:51:54.801Z,100463.41
2023-04-14T03:54:20.792Z,100455.47
2023-04-14T03:56:47.615Z,100459.88
2023-04-14T03:59:14.337Z,100464.97
2023-04-14T04:01:41.971Z,100461.44
2023-04-14T04:04:07.037Z,100465.94
2023-04-14T04:06:31.605Z,100489.06
2023-04-14T04:08:57.369Z,100476.59
2023-04-14T04:11:23.128Z,100477.13
2023-04-14T04:13:49.994Z,100475.78
2023-04-14T04:16:15.167Z,100477.81
2023-04-14T04:18:43.070Z,100484.53
2023-04-14T04:21:08.577Z,100474.44
2023-04-14T04:23:34.572Z,100467.28
2023-04-14T04:25:59.177Z,100474.13
2023-04-14T04:28:29.632Z,100474.09
2023-04-14T04:30:56.066Z,100475.69
2023-04-14T04:33:21.391Z,100468.84
2023-04-14T04:35:48.194Z,100473.88
2023-04-14T04:38:12.398Z,100478.69
2023-04-14T04:40:39.907Z,100473.88
2023-04-14T04:43:10.334Z,100477.41
2023-04-14T04:45:52.048Z,100477.66
2023-04-14T04:48:15.832Z,100474.09
2023-04-14T04:50:41.982Z,100485.22
2023-04-14T04:53:07.077Z,100480.47
2023-04-14T04:55:32.107Z,100478.88
2023-04-14T04:57:55.724Z,100478.53
2023-04-14T05:00:22.929Z,100485.56
2023-04-14T05:02:46.704Z,100478.63
2023-04-14T05:05:11.296Z,100472.91
2023-04-14T05:07:34.925Z,100482.25
2023-04-14T05:09:59.813Z,100477.50
2023-04-14T05:12:23.441Z,100482.88
2023-04-14T05:14:46.953Z,100484.94
2023-04-14T05:17:10.756Z,100485.19
2023-04-14T05:19:34.263Z,100482.88
2023-04-14T05:21:57.810Z,100475.81
2023-04-14T05:24:21.352Z,100474.13
2023-04-14T05:26:58.338Z,100473.34
2023-04-14T05:29:29.923Z,100477.50
2023-04-14T05:31:53.422Z,100477.41
2023-04-14T05:34:17.154Z,100472.66
2023-04-14T05:36:40.693Z,100481.16
2023-04-14T05:39:04.486Z,100481.16
2023-04-14T05:41:28.006Z,100485.78
2023-04-14T05:43:52.915Z,100483.13
2023-04-14T05:46:16.461Z,100477.97
2023-04-14T05:48:40.111Z,100473.97
2023-04-14T05:51:03.632Z,100478.13
2023-04-14T05:53:27.768Z,100473.09
2023-04-14T05:55:53.466Z,100476.03
2023-04-14T05:58:17.074Z,100480.91
2023-04-14T06:00:42.044Z,100474.78
2023-04-14T06:03:05.986Z,100472.59
2023-04-14T06:05:29.899Z,100473.84
2023-04-14T06:07:53.555Z,100475.75
2023-04-14T06:10:17.187Z,100478.06
2023-04-14T06:12:40.972Z,100480.28
2023-04-14T06:15:05.242Z,100481.00
2023-04-14T06:17:30.910Z,100479.66
2023-04-14T06:19:54.456Z,100482.13
2023-04-14T06:22:19.859Z,100483.41
2023-04-14T06:24:43.429Z,100481.47
2023-04-14T06:27:07.127Z,100480.34
2023-04-14T06:29:31.001Z,100494.75
2023-04-14T06:31:54.949Z,100492.94
2023-04-14T06:34:20.000Z,100497.81
2023-04-14T06:36:43.707Z,100499.28
2023-04-14T06:39:07.224Z,100493.06
2023-04-14T06:41:30.806Z,100499.88
2023-04-14T06:43:54.361Z,100500.56
2023-04-14T06:46:18.180Z,100493.97
2023-04-14T06:48:41.730Z,100494.03
2023-04-14T06:51:10.598Z,100493.00
2023-04-14T06:53:34.327Z,100486.91
2023-04-14T06:56:00.644Z,100490.41
2023-04-14T06:58:24.319Z,100492.00
2023-04-14T07:00:47.975Z,100489.13
2023-04-14T07:03:11.743Z,100490.97
2023-04-14T07:05:35.413Z,100493.28
2023-04-14T07:08:00.346Z,100491.88
2023-04-14T07:10:23.959Z,100492.63
2023-04-14T07:12:47.493Z,100499.03
2023-04-14T07:15:14.173Z,100494.94
2023-04-14T07:17:38.150Z,100497.22
2023-04-14T07:20:03.675Z,100487.66
2023-04-14T07:22:27.222Z,100490.28
2023-04-14T07:24:53.810Z,100497.34
2023-04-14T07:27:17.340Z,100499.97
2023-04-14T07:29:40.949Z,100496.16
2023-04-14T07:32:04.481Z,100489.47
2023-04-14T07:34:28.503Z,100504.13
2023-04-14T07:36:52.073Z,100492.16
2023-04-14T07:39:15.916Z,100504.41
2023-04-14T07:41:41.271Z,100505.00
2023-04-14T07:44:04.879Z,100514.09
2023-04-14T07:46:28.606Z,100518.63
2023-04-14T07:48:52.487Z,100513.03
2023-04-14T07:51:16.090Z,100524.59
2023-04-14T07:53:43.284Z,100522.97
2023-04-14T07:56:07.249Z,100523.28
2023-04-14T07:58:32.325Z,100528.66
2023-04-14T08:00:56.109Z,100524.00
2023-04-14T08:03:19.878Z,100538.47
2023-04-14T08:05:43.821Z,100536.03
2023-04-14T08:08:07.571Z,100532.19
2023-04-14T08:10:31.180Z,100526.78
2023-04-14T08:12:54.786Z,100534.81
2023-04-14T08:15:19.894Z,100530.50
2023-04-14T08:17:43.558Z,100522.78
2023-04-14T08:20:09.050Z,100516.31
2023-04-14T08:22:35.025Z,100511.75
2023-04-14T08:24:58.551Z,100525.78
2023-04-14T08:27:22.144Z,100510.19
2023-04-14T08:29:46.008Z,100523.56
2023-04-14T08:32:11.043Z,100514.84
2023-04-14T08:34:34.814Z,100520.59
2023-04-14T08:37:00.240Z,100515.72
2023-04-14T08:39:24.166Z,100518.50
2023-04-14T08:41:47.777Z,100512.63
2023-04-14T08:44:11.345Z,100510.16
2023-04-14T08:46:36.402Z,100511.72
2023-04-14T08:49:08.010Z,100504.03
2023-04-14T08:51:33.818Z,100505.72
2023-04-14T08:53:58.410Z,100503.16
2023-04-14T08:56:23.108Z,100499.50
2023-04-14T08:58:47.422Z,100496.88
2023-04-14T09:01:11.545Z,100498.91
2023-04-14T09:03:36.428Z,100501.41
2023-04-14T09:06:02.611Z,100494.97
2023-04-14T09:08:26.408Z,100496.56
2023-04-14T09:10:51.485Z,100493.66
2023-04-14T09:13:17.874Z,100494.94
2023-04-14T09:15:41.502Z,100496.25
2023-04-14T09:18:05.322Z,100490.31
2023-04-14T09:20:40.340Z,100492.94
2023-04-14T09:23:06.486Z,100499.59
2023-04-14T09:25:31.119Z,100494.22
2023-04-14T09:27:55.461Z,100488.84
2023-04-14T09:30:19.143Z,100491.31
2023-04-14T09:32:44.995Z,100501.34
2023-04-14T09:35:13.268Z,100500.56
2023-04-14T09:37:48.813Z,100502.66
2023-04-14T09:40:29.330Z,100490.53
2023-04-14T09:42:52.929Z,100505.31
2023-04-14T09:45:16.622Z,100506.19
2023-04-14T09:47:40.396Z,100489.69
2023-04-14T09:50:05.632Z,100487.00
2023-04-14T09:52:39.664Z,100481.75
2023-04-14T09:55:03.341Z,100479.47
2023-04-14T09:57:29.798Z,100476.00
2023-04-14T09:59:53.478Z,100482.03
2023-04-14T10:02:17.204Z,100476.00
2023-04-14T10:04:40.980Z,100471.56
2023-04-14T10:07:09.040Z,100476.03
2023-04-14T10:09:38.809Z,100474.16
2023-04-14T10:12:12.323Z,100489.88
2023-04-14T10:14:38.927Z,100490.91
2023-04-14T10:17:03.445Z,100480.53
2023-04-14T10:19:27.278Z,100482.34
2023-04-14T10:21:51.119Z,100478.69
2023-04-14T10:24:14.739Z,100472.78
2023-04-14T10:26:38.354Z,100475.28
2023-04-14T10:29:03.878Z,100471.78
2023-04-14T10:31:34.216Z,100467.03
2023-04-14T10:33:58.315Z,100470.03
2023-04-14T10:36:25.737Z,100463.94
2023-04-14T10:38:49.480Z,100463.06
2023-04-14T10:41:14.231Z,100461.41
2023-04-14T10:43:38.699Z,100459.94
2023-04-14T10:46:02.709Z,100459.75
2023-04-14T10:48:28.636Z,100459.59
2023-04-14T10:50:57.365Z,100451.66
2023-04-14T10:53:21.265Z,100442.19
2023-04-14T10:55:52.242Z,100448.63
2023-04-14T10:58:21.754Z,100444.41
2023-04-14T11:00:45.443Z,100446.88
2023-04-14T11:03:11.865Z,100445.00
2023-04-14T11:05:37.523Z,100442.47
2023-04-14T11:08:03.299Z,100429.59
2023-04-14T11:10:32.612Z,100433.81
2023-04-14T11:12:58.556Z,100433.28
2023-04-14T11:15:22.139Z,100434.34
2023-04-14T11:17:46.085Z,100437.63
2023-04-14T11:20:16.759Z,100439.13
2023-04-14T11:22:44.594Z,100434.88
2023-04-14T11:25:11.990Z,100439.81
2023-04-14T11:27:36.583Z,100434.66
2023-04-14T11:30:01.805Z,100441.50
2023-04-14T11:32:25.548Z,100444.28
2023-04-14T11:34:49.239Z,100443.50
2023-04-14T11:37:13.349Z,100437.94
2023-04-14T11:39:38.433Z,100436.22
2023-04-14T11:42:02.523Z,100437.03
2023-04-14T11:44:26.551Z,100447.31
2023-04-14T11:46:51.656Z,100444.47
2023-04-14T11:49:15.264Z,100448.69
2023-04-14T11:51:38.958Z,100436.19
2023-04-14T11:54:03.357Z,100443.47
2023-04-14T11:56:28.826Z,100442.13
2023-04-14T11:58:53.824Z,100437.44
2023-04-14T12:01:25.077Z,100432.75
2023-04-14T12:03:49.667Z,100434.28
2023-04-14T12:06:13.430Z,100426.09
2023-04-14T12:08:37.174Z,100437.03
2023-04-14T12:11:14.324Z,100432.13
2023-04-14T12:13:43.271Z,100431.91
2023-04-14T12:16:07.157Z,100427.56
2023-04-14T12:18:30.878Z,100423.41
2023-04-14T12:20:56.427Z,100423.59
2023-04-14T12:23:20.552Z,100415.56
2023-04-14T12:25:44.165Z,100420.41
2023-04-14T12:28:08.460Z,100416.03
2023-04-14T12:30:33.740Z,100413.34
2023-04-14T12:32:57.808Z,100412.00
2023-04-14T12:35:24.657Z,100413.69
2023-04-14T12:37:51.933Z,100410.66
2023-04-14T12:40:16.348Z,100412.63
2023-04-14T12:42:48.721Z,100402.66
2023-04-14T12:45:12.804Z,100404.22
2023-04-14T12:47:38.291Z,100404.19
2023-04-14T12:50:03.701Z,100397.06
2023-04-14T12:52:38.222Z,100397.75
2023-04-14T12:55:03.235Z,100399.00
2023-04-14T12:57:27.298Z,100385.84
2023-04-14T12:59:51.013Z,100396.41
2023-04-14T13:02:15.497Z,100388.94
2023-04-14T13:04:40.640Z,100398.47
2023-04-14T13:07:04.496Z,100385.91
2023-04-14T13:09:29.270Z,100384.72
2023-04-14T13:11:53.784Z,100386.38
2023-04-14T13:14:17.612Z,100385.13
2023-04-14T13:16:41.158Z,100385.91
2023-04-14T13:19:04.774Z,100378.91
2023-04-14T13:21:29.669Z,100380.88
2023-04-14T13:23:53.290Z,100384.47
2023-04-14T13:26:16.844Z,100364.72
2023-04-14T13:28:40.475Z,100368.81
2023-04-14T13:31:04.050Z,100373.00
2023-04-14T13:33:27.933Z,100366.66
2023-04-14T13:35:51.913Z,100367.88
2023-04-14T13:38:17.035Z,100363.78
2023-04-14T13:40:40.540Z,100355.53
2023-04-14T13:43:04.327Z,100358.81
2023-04-14T13:45:28.480Z,100353.91
2023-04-14T13:47:52.249Z,100368.06
2023-04-14T13:50:16.081Z,100364.34
2023-04-14T13:52:41.053Z,100354.19
2023-04-14T13:55:06.943Z,100349.91
2023-04-14T13:57:30.559Z,100356.78
2023-04-14T13:59:54.065Z,100351.81
2023-04-14T14:02:17.787Z,100358.16
2023-04-14T14:04:41.584Z,100351.41
2023-04-14T14:07:05.389Z,100356.44
2023-04-14T14:09:28.956Z,100356.50
2023-04-14T14:11:54.001Z,100353.13
2023-04-14T14:14:17.510Z,100343.75
2023-04-14T14:16:41.209Z,100348.78
2023-04-14T14:19:07.330Z,100346.16
2023-04-14T14:21:31.437Z,100339.47
2023-04-14T14:23:54.967Z,100343.19
2023-04-14T14:26:18.569Z,100341.00
2023-04-14T14:28:43.681Z,100348.00
2023-04-14T14:31:07.564Z,100342.97
2023-04-14T14:33:31.181Z,100341.53
2023-04-14T14:35:55.074Z,100335.00
2023-04-14T14:38:18.586Z,100339.78
2023-04-14T14:40:42.155Z,100341.63
2023-04-14T14:43:05.743Z,100339.75
2023-04-14T14:45:32.968Z,100333.50
2023-04-14T14:47:56.940Z,100335.31
2023-04-14T14:50:21.055Z,100329.56
2023-04-14T14:52:44.537Z,100321.59
2023-04-14T14:55:09.852Z,100320.59
2023-04-14T14:57:33.404Z,100321.84
2023-04-14T14:59:57.381Z,100319.50
2023-04-14T15:02:22.744Z,100320.03
2023-04-14T15:04:47.279Z,100311.63
2023-04-14T15:07:10.856Z,100316.81
2023-04-14T15:09:34.424Z,100307.28
2023-04-14T15:11:58.188Z,100315.19
2023-04-14T15:14:21.830Z,100314.66
2023-04-14T15:16:45.531Z,100312.38
2023-04-14T15:19:10.704Z,100316.53
2023-04-14T15:21:34.477Z,100308.09
2023-04-14T15:23:58.037Z,100309.94
2023-04-14T15:26:22.161Z,100311.50
2023-04-14T15:28:47.608Z,100308.34
2023-04-14T15:31:11.134Z,100313.16
2023-04-14T15:33:34.889Z,100310.53
2023-04-14T15:35:59.791Z,100317.13
2023-04-14T15:38:23.497Z,100325.09
2023-04-14T15:40:47.010Z,100323.59
2023-04-14T15:43:11.437Z,100322.06
2023-04-14T15:45:35.001Z,100317.59
2023-04-14T15:47:58.747Z,100318.91
2023-04-14T15:50:22.302Z,100326.38
2023-04-14T15:52:47.288Z,100319.72
2023-04-14T15:55:11.965Z,100323.47
2023-04-14T15:57:36.182Z,100322.56
2023-04-14T15:59:59.735Z,100322.97
2023-04-14T16:02:25.216Z,100318.59
2023-04-14T16:04:48.898Z,100318.31
2023-04-14T16:07:12.589Z,100325.63
2023-04-14T16:09:37.593Z,100331.63
2023-04-14T16:12:01.425Z,100330.03
2023-04-14T16:14:24.929Z,100336.34
2023-04-14T16:16:48.496Z,100331.28
2023-04-14T16:19:12.539Z,100330.75
2023-04-14T16:21:36.180Z,100335.00
2023-04-14T16:24:00.005Z,100329.50
2023-04-14T16:26:25.244Z,100326.97
2023-04-14T16:28:48.828Z,100323.56
2023-04-14T16:31:12.991Z,100328.38
2023-04-14T16:33:36.524Z,100330.16
2023-04-14T16:36:04.411Z,100330.69
2023-04-14T16:38:28.242Z,100331.53
2023-04-14T16:40:57.399Z,100327.78
2023-04-14T16:43:22.329Z,100330.22
2023-04-14T16:45:46.602Z,100324.25
2023-04-14T16:48:10.129Z,100318.78
2023-04-14T16:50:35.044Z,100322.44
2023-04-14T16:52:59.111Z,100328.44
2023-04-14T16:55:22.675Z,100318.59
2023-04-14T16:57:46.238Z,100330.16
2023-04-14T17:00:13.839Z,100317.34
2023-04-14T17:02:38.695Z,100325.38
2023-04-14T17:05:03.518Z,100317.59
2023-04-14T17:07:27.092Z,100304.38
2023-04-14T17:09:50.880Z,100309.44
2023-04-14T17:12:14.376Z,100310.41
2023-04-14T17:14:38.506Z,100311.97
2023-04-14T17:17:03.535Z,100312.09
2023-04-14T17:19:27.573Z,100309.88
2023-04-14T17:21:51.066Z,100310.72
2023-04-14T17:24:14.739Z,100314.66
2023-04-14T17:26:38.332Z,100308.50
2023-04-14T17:29:02.302Z,100315.63
2023-04-14T17:31:26.584Z,100315.84
2023-04-14T17:33:51.736Z,100318.31
2023-04-14T17:36:17.542Z,100327.09
2023-04-14T17:38:42.817Z,100328.00
2023-04-14T17:41:07.924Z,100329.03
2023-04-14T17:43:31.543Z,100333.31
2023-04-14T17:45:55.298Z,100326.16
2023-04-14T17:48:19.506Z,100325.53
2023-04-14T17:50:44.645Z,100322.06
2023-04-14T17:53:08.397Z,100318.09
2023-04-14T17:55:32.499Z,100317.84
2023-04-14T17:57:56.430Z,100319.09
2023-04-14T18:00:20.628Z,100320.16
2023-04-14T18:02:44.293Z,100317.22
2023-04-14T18:05:09.065Z,100318.13
2023-04-14T18:07:34.614Z,100324.66
2023-04-14T18:09:58.517Z,100323.88
2023-04-14T18:12:22.972Z,100335.09
2023-04-14T18:14:46.488Z,100336.25
2023-04-14T18:17:10.722Z,100337.50
2023-04-14T18:19:35.809Z,100335.28
2023-04-14T18:21:59.483Z,100341.63
2023-04-14T18:26:51.878Z,100341.22
2023-04-14T18:29:15.446Z,100341.88
2023-04-14T18:31:39.058Z,100339.69
2023-04-14T18:34:06.467Z,100347.16
2023-04-14T18:36:30.145Z,100345.78
2023-04-14T18:38:53.626Z,100344.41
2023-04-14T18:41:19.886Z,100341.59
2023-04-14T18:43:43.384Z,100348.53
2023-04-14T18:46:07.033Z,100346.69
2023-04-14T18:48:30.661Z,100343.34
2023-04-14T18:51:00.073Z,100345.56
2023-04-14T18:53:24.614Z,100338.28
2023-04-14T18:55:49.544Z,100330.75
2023-04-14T18:58:15.026Z,100328.53
2023-04-14T19:00:38.887Z,100338.69
2023-04-14T19:03:04.634Z,100336.63
2023-04-14T19:05:29.757Z,100334.06
2023-04-14T19:07:53.305Z,100325.63
2023-04-14T19:10:17.132Z,100322.31
2023-04-14T19:12:40.872Z,100329.13
2023-04-14T19:15:07.704Z,100322.66
2023-04-14T19:17:34.690Z,100316.41
2023-04-14T19:19:58.292Z,100309.28
2023-04-14T19:22:21.804Z,100299.81
2023-04-14T19:24:45.455Z,100299.09
2023-04-14T19:27:10.310Z,100289.38
2023-04-14T19:29:33.900Z,100276.91
2023-04-14T19:31:58.868Z,100274.31
2023-04-14T19:34:22.524Z,100267.47
2023-04-14T19:36:47.712Z,100282.66
2023-04-14T19:39:11.286Z,100273.34
2023-04-14T19:41:34.883Z,100274.59
2023-04-14T19:43:58.581Z,100274.00
2023-04-14T19:46:22.662Z,100280.66
2023-04-14T19:48:47.728Z,100279.09
2023-04-14T19:51:11.396Z,100277.66
2023-04-14T19:53:34.965Z,100277.00
2023-04-14T19:55:59.788Z,100270.44
2023-04-14T19:58:24.794Z,100274.09
2023-04-14T20:00:48.814Z,100266.63
2023-04-14T20:03:12.862Z,100266.66
2023-04-14T20:05:38.001Z,100271.84
2023-04-14T20:08:01.635Z,100262.03
2023-04-14T20:10:25.140Z,100257.00
2023-04-14T20:12:49.303Z,100253.00
2023-04-14T20:15:13.161Z,100262.41
2023-04-14T20:17:36.844Z,100262.41
2023-04-14T20:20:01.567Z,100261.59
2023-04-14T20:22:27.208Z,100263.53
2023-04-14T20:24:50.702Z,100260.31
2023-04-14T20:27:14.370Z,100265.09
2023-04-14T20:29:38.001Z,100258.91
2023-04-14T20:32:02.221Z,100261.06
2023-04-14T20:34:26.616Z,100263.28
2023-04-14T20:36:53.018Z,100265.72
2023-04-14T20:39:18.303Z,100262.41
2023-04-14T20:41:42.162Z,100259.63
2023-04-14T20:44:06.331Z,100257.28
2023-04-14T20:46:30.399Z,100259.84
2023-04-14T20:48:53.985Z,100259.00
2023-04-14T20:51:18.128Z,100267.88
2023-04-14T20:53:41.694Z,100264.03
2023-04-14T20:56:07.123Z,100257.16
2023-04-14T20:58:30.661Z,100267.94
2023-04-14T21:00:54.226Z,100261.91
2023-04-14T21:03:18.283Z,100265.09
2023-04-14T21:05:42.200Z,100268.00
2023-04-14T21:08:05.863Z,100265.72
2023-04-14T21:10:29.675Z,100277.25
2023-04-14T21:15:24.685Z,100266.34
2023-04-14T21:15:52.401Z,100257.50
2023-04-14T21:18:17.254Z,100249.31
2023-04-14T21:20:41.202Z,100254.00
2023-04-14T21:23:04.811Z,100254.66
2023-04-14T21:25:28.361Z,100249.06
2023-04-14T21:27:53.586Z,100244.34
2023-04-14T21:30:17.484Z,100241.41
2023-04-14T21:32:41.474Z,100241.94
2023-04-14T21:35:05.407Z,100244.34
2023-04-14T21:37:29.226Z,100237.66
2023-04-14T21:39:53.677Z,100241.19
2023-04-14T21:42:17.476Z,100243.56
2023-04-14T21:44:42.441Z,100239.16
2023-04-14T21:47:06.383Z,100234.38
2023-04-14T21:49:29.899Z,100227.34
2023-04-14T21:51:53.653Z,100223.66
2023-04-14T21:54:17.156Z,100232.13
2023-04-14T21:56:41.816Z,100224.44
2023-04-14T21:59:06.279Z,100217.97
2023-04-14T22:01:31.477Z,100214.13
2023-04-14T22:03:56.031Z,100210.31
2023-04-14T22:06:21.086Z,100211.19
2023-04-14T22:08:44.748Z,100210.44
2023-04-14T22:11:08.486Z,100209.75
2023-04-14T22:13:32.168Z,100204.88
2023-04-14T22:15:56.641Z,100204.97
2023-04-14T22:18:21.889Z,100200.00
2023-04-14T22:20:46.139Z,100205.03
2023-04-14T22:23:09.674Z,100193.53
2023-04-14T22:25:33.384Z,100194.75
2023-04-14T22:27:57.302Z,100197.13
2023-04-14T22:30:20.964Z,100196.09
2023-04-14T22:32:44.666Z,100190.06
2023-04-14T22:35:10.478Z,100191.72
2023-04-14T22:37:34.190Z,100194.88
2023-04-14T22:39:57.755Z,100194.28
2023-04-14T22:42:21.285Z,100196.41
2023-04-14T22:44:45.042Z,100191.75
2023-04-14T22:47:08.623Z,100188.66
2023-04-14T22:49:32.602Z,100186.22
2023-04-14T22:51:58.021Z,100180.69
2023-04-14T22:54:21.589Z,100181.50
2023-04-14T22:56:45.129Z,100183.28
2023-04-14T22:59:08.780Z,100183.56
2023-04-14T23:01:32.839Z,100181.63
2023-04-14T23:03:56.751Z,100189.69
2023-04-14T23:06:20.560Z,100183.63
2023-04-14T23:08:45.844Z,100184.47
2023-04-14T23:11:09.370Z,100182.97
2023-04-14T23:13:33.301Z,100184.63
2023-04-14T23:15:56.870Z,100183.00
2023-04-14T23:18:20.683Z,100181.03
2023-04-14T23:20:44.611Z,100178.97
2023-04-14T23:23:12.262Z,100181.41
2023-04-14T23:25:37.509Z,100175.75
2023-04-14T23:28:01.168Z,100171.44
2023-04-14T23:30:24.700Z,100171.25
2023-04-14T23:32:48.320Z,100167.88
2023-04-14T23:35:12.026Z,100170.13
2023-04-14T23:37:35.628Z,100165.31
2023-04-14T23:39:59.160Z,100173.72
2023-04-14T23:42:24.247Z,100177.09
2023-04-14T23:44:47.776Z,100174.22
2023-04-14T23:47:11.556Z,100164.69
2023-04-14T23:49:35.780Z,100172.25
2023-04-14T23:51:59.635Z,100167.59
2023-04-14T23:54:23.242Z,100166.44
2023-04-14T23:56:48.526Z,100169.13
2023-04-14T23:59:13.416Z,100171.84
